Time;durP1;ratioP1;P1;durP2;ratioP2;P2;SDS_P1;SDS_P2;PMS_P1;PMS_P2;Temp;Humidity;BMP_temperature;BMP_pressure;BME280_temperature;BME280_humidity;BME280_pressure;Samples;Min_cycle;Max_cycle;Signal;HPM_P1;HPM_P2
2021/06/18 00:00:45;;;;;;;;;;;;;;;13.12;100.00;99021.16;5140399;27;19923;-86
2021/06/18 00:03:13;;;;;;;;;;;;;;;13.08;100.00;99020.47;5157513;27;19923;-86
2021/06/18 00:05:39;;;;;;;;;;;;;;;13.03;100.00;99026.59;5132728;27;19934;-86
2021/06/18 00:08:07;;;;;;;;;;;;;;;12.87;100.00;99038.63;5115266;27;20454;-86
2021/06/18 00:10:34;;;;;;;;;;;;;;;12.91;100.00;99035.72;5136710;27;20282;-85
2021/06/18 00:13:01;;;;;;;;;;;;;;;13.14;100.00;99043.94;5110708;27;19931;-86
2021/06/18 00:15:28;;;;;;;;;;;;;;;13.20;100.00;99036.59;5155068;27;19923;-85
2021/06/18 00:17:55;;;;;;;;;;;;;;;13.20;100.00;99019.75;5122048;27;20025;-86
2021/06/18 00:20:23;;;;;;;;;;;;;;;13.25;100.00;99024.81;5157528;27;19923;-85
2021/06/18 00:22:50;;;;;;;;;;;;;;;13.09;100.00;99024.84;5124287;27;19927;-85
2021/06/18 00:25:17;;;;;;;;;;;;;;;12.87;100.00;99029.41;5138888;27;19931;-86
2021/06/18 00:27:45;;;;;;;;;;;;;;;12.97;100.00;99029.13;5136039;27;20358;-85
2021/06/18 00:30:12;;;;;;;;;;;;;;;12.91;100.00;99028.09;5123913;27;19923;-85
2021/06/18 00:32:40;;;;;;;;;;;;;;;12.87;100.00;99035.03;5139018;27;19933;-86
2021/06/18 00:35:07;;;;;;;;;;;;;;;12.85;100.00;99031.88;5131516;27;19923;-85
2021/06/18 00:37:34;;;;;;;;;;;;;;;12.77;100.00;99034.84;5132331;27;19923;-85
2021/06/18 00:40:03;;;;;;;;;;;;;;;12.80;100.00;99035.22;5143099;27;20066;-85
2021/06/18 00:42:32;;;;;;;;;;;;;;;12.78;100.00;99044.06;5122213;27;20370;-85
2021/06/18 00:44:59;;;;;;;;;;;;;;;12.78;100.00;99038.47;5104358;27;19930;-85
2021/06/18 00:47:28;;;;;;;;;;;;;;;12.56;100.00;99038.19;5157003;27;20075;-85
2021/06/18 00:49:55;;;;;;;;;;;;;;;12.62;100.00;99036.44;5135043;27;19923;-85
2021/06/18 00:52:23;;;;;;;;;;;;;;;12.59;100.00;99045.72;5136377;27;20005;-85
2021/06/18 00:54:51;;;;;;;;;;;;;;;12.51;100.00;99041.50;5115491;27;20320;-84
2021/06/18 00:57:18;;;;;;;;;;;;;;;12.55;100.00;99044.22;5104326;27;19923;-84
2021/06/18 00:59:45;;;;;;;;;;;;;;;12.59;100.00;99048.53;5138322;27;19932;-85
2021/06/18 01:02:13;;;;;;;;;;;;;;;12.62;100.00;99058.06;5120986;27;19923;-85
2021/06/18 01:04:40;;;;;;;;;;;;;;;12.58;100.00;99051.78;5108257;27;19933;-85
2021/06/18 01:07:07;;;;;;;;;;;;;;;12.55;100.00;99053.44;5136235;27;19964;-85
2021/06/18 01:09:40;;;;;;;;;;;;;;;12.45;100.00;99046.06;5138186;27;19923;-86
2021/06/18 01:12:14;;;;;;;;;;;;;;;12.60;100.00;99044.50;5117674;27;19924;-85
2021/06/18 01:15:01;;;;;;;;;;;;;;;12.60;100.00;99044.50;5138009;27;19923;-86
2021/06/18 01:17:41;;;;;;;;;;;;;;;12.48;100.00;99030.41;5127928;27;20409;-86
2021/06/18 01:20:27;;;;;;;;;;;;;;;12.51;100.00;99029.53;5121525;27;20362;-86
2021/06/18 01:22:56;;;;;;;;;;;;;;;12.50;100.00;99037.13;5136586;27;20011;-85
2021/06/18 01:25:36;;;;;;;;;;;;;;;12.37;100.00;99043.88;5134364;27;19958;-86
2021/06/18 01:28:13;;;;;;;;;;;;;;;12.36;100.00;99050.69;5096554;28;19924;-85
2021/06/18 01:30:40;;;;;;;;;;;;;;;12.48;100.00;99050.78;5130087;27;19933;-85
2021/06/18 01:33:19;;;;;;;;;;;;;;;12.44;100.00;99055.69;5120576;27;19923;-85
2021/06/18 01:35:48;;;;;;;;;;;;;;;12.48;100.00;99045.19;5134638;27;19924;-85
2021/06/18 01:38:17;;;;;;;;;;;;;;;12.35;100.00;99055.50;5155192;27;19923;-85
2021/06/18 01:40:45;;;;;;;;;;;;;;;12.23;100.00;99061.78;5144043;27;19924;-85
2021/06/18 01:43:13;;;;;;;;;;;;;;;12.11;100.00;99058.88;5137392;27;19930;-85
2021/06/18 01:45:42;;;;;;;;;;;;;;;12.02;100.00;99059.47;5137591;27;19933;-85
2021/06/18 01:48:11;;;;;;;;;;;;;;;12.27;100.00;99064.50;5141472;27;19923;-85
2021/06/18 01:50:39;;;;;;;;;;;;;;;12.36;100.00;99062.69;5128339;27;19972;-85
2021/06/18 01:53:15;;;;;;;;;;;;;;;12.29;100.00;99068.47;5150914;27;19923;-85
2021/06/18 01:55:43;;;;;;;;;;;;;;;12.11;100.00;99068.06;5137608;27;20056;-85
2021/06/18 01:58:11;;;;;;;;;;;;;;;11.93;100.00;99078.06;5134847;27;20027;-86
2021/06/18 02:00:41;;;;;;;;;;;;;;;12.01;100.00;99088.66;5120101;27;20397;-86
2021/06/18 02:03:09;;;;;;;;;;;;;;;12.10;100.00;99080.47;5155648;27;19923;-86
2021/06/18 02:05:38;;;;;;;;;;;;;;;11.85;100.00;99085.03;5103360;27;19923;-86
2021/06/18 02:08:09;;;;;;;;;;;;;;;11.86;100.00;99090.19;5120196;27;20006;-85
2021/06/18 02:10:38;;;;;;;;;;;;;;;11.87;100.00;99096.59;5120486;27;19923;-85
2021/06/18 02:13:07;;;;;;;;;;;;;;;11.93;100.00;99098.47;5115358;27;20014;-85
2021/06/18 02:15:38;;;;;;;;;;;;;;;12.00;100.00;99100.31;5116657;28;19931;-85
2021/06/18 02:18:09;;;;;;;;;;;;;;;11.94;100.00;99090.84;5134647;27;19929;-85
2021/06/18 02:20:38;;;;;;;;;;;;;;;11.59;100.00;99100.72;5119761;28;19924;-85
2021/06/18 02:23:07;;;;;;;;;;;;;;;11.70;100.00;99092.94;5123467;28;19923;-86
2021/06/18 02:25:34;;;;;;;;;;;;;;;11.88;100.00;99089.75;5134589;28;19924;-86
2021/06/18 02:28:04;;;;;;;;;;;;;;;11.88;100.00;99082.16;5134392;28;19923;-86
2021/06/18 02:30:32;;;;;;;;;;;;;;;12.02;100.00;99089.47;5134421;27;19931;-85
2021/06/18 02:33:00;;;;;;;;;;;;;;;11.92;100.00;99088.47;5079887;28;19924;-85
2021/06/18 02:35:27;;;;;;;;;;;;;;;11.96;100.00;99094.81;5131137;28;19923;-85
2021/06/18 02:37:55;;;;;;;;;;;;;;;11.89;100.00;99080.94;5128362;28;19924;-85
2021/06/18 02:40:22;;;;;;;;;;;;;;;11.85;100.00;99083.03;5128195;27;19930;-86
2021/06/18 02:42:49;;;;;;;;;;;;;;;11.97;100.00;99085.16;5082907;28;19931;-85
2021/06/18 02:45:16;;;;;;;;;;;;;;;11.83;100.00;99074.25;5116277;28;20013;-86
2021/06/18 02:47:49;;;;;;;;;;;;;;;11.79;100.00;99081.16;5115791;28;20374;-85
2021/06/18 02:50:24;;;;;;;;;;;;;;;11.63;100.00;99087.47;5116543;28;19958;-85
2021/06/18 02:52:58;;;;;;;;;;;;;;;11.67;100.00;99085.41;5116366;28;19942;-85
2021/06/18 02:55:43;;;;;;;;;;;;;;;11.89;100.00;99082.97;5123914;28;19973;-85
2021/06/18 02:58:21;;;;;;;;;;;;;;;11.95;100.00;99070.03;5102939;28;19930;-85
2021/06/18 03:00:49;;;;;;;;;;;;;;;12.01;100.00;99074.66;5099238;28;19923;-86
2021/06/18 03:03:18;;;;;;;;;;;;;;;12.04;100.00;99079.41;5134383;28;19924;-85
2021/06/18 03:05:49;;;;;;;;;;;;;;;12.03;100.00;99077.03;5099193;28;19973;-85
2021/06/18 03:08:17;;;;;;;;;;;;;;;12.05;100.00;99081.00;5130327;28;20383;-85
2021/06/18 03:10:48;;;;;;;;;;;;;;;12.08;100.00;99070.94;5115874;28;19924;-85
2021/06/18 03:13:18;;;;;;;;;;;;;;;12.11;100.00;99073.66;5115582;28;19924;-86
2021/06/18 03:15:46;;;;;;;;;;;;;;;12.25;100.00;99072.56;5124425;28;19930;-85
2021/06/18 03:18:14;;;;;;;;;;;;;;;12.53;100.00;99069.91;5098884;28;20366;-85
2021/06/18 03:20:42;;;;;;;;;;;;;;;12.63;100.00;99071.66;5099084;28;19962;-85
2021/06/18 03:23:12;;;;;;;;;;;;;;;12.53;100.00;99067.09;5134300;27;19930;-85
2021/06/18 03:25:40;;;;;;;;;;;;;;;12.63;100.00;99079.28;5115920;28;19924;-85
2021/06/18 03:28:07;;;;;;;;;;;;;;;12.74;100.00;99077.78;5115725;27;19924;-85
2021/06/18 03:30:35;;;;;;;;;;;;;;;12.71;100.00;99078.66;5115417;27;19976;-85
2021/06/18 03:33:03;;;;;;;;;;;;;;;12.91;100.00;99080.59;5137896;27;19924;-85
2021/06/18 03:35:30;;;;;;;;;;;;;;;12.92;100.00;99080.13;5137752;27;20343;-85
2021/06/18 03:37:58;;;;;;;;;;;;;;;12.93;100.00;99080.94;5138017;27;19923;-85
2021/06/18 03:40:26;;;;;;;;;;;;;;;12.80;100.00;99085.69;5120354;27;19923;-85
2021/06/18 03:42:53;;;;;;;;;;;;;;;12.94;100.00;99079.69;5119470;27;20011;-86
2021/06/18 03:45:22;;;;;;;;;;;;;;;12.95;100.00;99078.50;5088891;27;19927;-85
2021/06/18 03:47:50;;;;;;;;;;;;;;;13.05;100.00;99074.66;5137632;27;19985;-85
2021/06/18 03:50:21;;;;;;;;;;;;;;;12.99;100.00;99074.38;5119353;27;20479;-85
2021/06/18 03:52:48;;;;;;;;;;;;;;;13.10;100.00;99079.75;5138025;27;19930;-85
2021/06/18 03:55:15;;;;;;;;;;;;;;;13.06;100.00;99087.44;5119093;27;20409;-85
2021/06/18 03:57:50;;;;;;;;;;;;;;;13.24;100.00;99077.34;5119141;27;20301;-85
2021/06/18 04:00:18;;;;;;;;;;;;;;;13.33;100.00;99085.16;5119333;27;19923;-85
2021/06/18 04:02:46;;;;;;;;;;;;;;;13.44;100.00;99091.25;5085211;27;19923;-86
2021/06/18 04:05:15;;;;;;;;;;;;;;;13.47;100.00;99098.78;5118717;27;19924;-85
2021/06/18 04:07:47;;;;;;;;;;;;;;;13.44;100.00;99099.66;5118553;27;20397;-86
2021/06/18 04:10:16;;;;;;;;;;;;;;;13.49;100.00;99090.72;5118867;27;20021;-85
2021/06/18 04:12:44;;;;;;;;;;;;;;;13.49;100.00;99099.13;5102274;27;19931;-85
2021/06/18 04:15:12;;;;;;;;;;;;;;;13.52;100.00;99101.06;5128956;27;19934;-85
2021/06/18 04:17:40;;;;;;;;;;;;;;;13.58;100.00;99085.25;5102112;27;19930;-85
2021/06/18 04:20:07;;;;;;;;;;;;;;;13.64;100.00;99083.47;5118968;27;20764;-85
2021/06/18 04:22:35;;;;;;;;;;;;;;;13.66;100.00;99081.03;5101874;27;19931;-85
2021/06/18 04:25:06;;;;;;;;;;;;;;;13.68;100.00;99084.16;5101123;27;19982;-85
2021/06/18 04:27:33;;;;;;;;;;;;;;;13.65;100.00;99090.66;5094940;27;19923;-85
2021/06/18 04:30:03;;;;;;;;;;;;;;;13.66;100.00;99089.44;5122277;27;19927;-85
2021/06/18 04:32:30;;;;;;;;;;;;;;;13.63;100.00;99085.50;5118707;27;20061;-85
2021/06/18 04:34:57;;;;;;;;;;;;;;;13.62;100.00;99080.31;5136538;27;20336;-85
2021/06/18 04:37:24;;;;;;;;;;;;;;;13.56;100.00;99079.28;5101206;27;19923;-85
2021/06/18 04:39:53;;;;;;;;;;;;;;;13.62;100.00;99091.53;5111928;27;19927;-85
2021/06/18 04:42:20;;;;;;;;;;;;;;;13.60;100.00;99091.97;5118219;27;19972;-85
2021/06/18 04:44:47;;;;;;;;;;;;;;;13.59;100.00;99086.81;5126833;27;19973;-85
2021/06/18 04:47:14;;;;;;;;;;;;;;;13.61;100.00;99087.16;5084685;27;19983;-85
2021/06/18 04:49:41;;;;;;;;;;;;;;;13.61;100.00;99084.38;5118109;27;20620;-84
2021/06/18 04:52:08;;;;;;;;;;;;;;;13.61;100.00;99073.94;5117847;27;19923;-85
2021/06/18 04:54:35;;;;;;;;;;;;;;;13.62;100.00;99083.13;5118276;27;20250;-84
2021/06/18 04:57:03;;;;;;;;;;;;;;;13.60;100.00;99088.41;5084447;27;20350;-85
2021/06/18 04:59:33;;;;;;;;;;;;;;;13.62;100.00;99083.91;5117901;27;20301;-85
2021/06/18 05:02:00;;;;;;;;;;;;;;;13.65;100.00;99093.47;5128032;27;20362;-85
2021/06/18 05:04:27;;;;;;;;;;;;;;;13.64;100.00;99089.09;5136490;27;20282;-84
2021/06/18 05:06:54;;;;;;;;;;;;;;;13.64;100.00;99086.28;5136465;27;19930;-84
2021/06/18 05:09:21;;;;;;;;;;;;;;;13.62;100.00;99097.16;5132278;27;19929;-85
2021/06/18 05:11:48;;;;;;;;;;;;;;;13.60;100.00;99106.03;5084426;27;19972;-85
2021/06/18 05:14:15;;;;;;;;;;;;;;;13.52;100.00;99103.88;5101058;27;20305;-85
2021/06/18 05:16:42;;;;;;;;;;;;;;;13.52;100.00;99109.47;5135963;27;20072;-85
2021/06/18 05:19:10;;;;;;;;;;;;;;;13.55;100.00;99103.78;5100444;27;19923;-86
2021/06/18 05:21:38;;;;;;;;;;;;;;;13.57;100.00;99098.50;5116994;27;19923;-85
2021/06/18 05:24:06;;;;;;;;;;;;;;;13.62;100.00;99099.97;5117654;27;19969;-85
2021/06/18 05:26:35;;;;;;;;;;;;;;;13.63;100.00;99093.91;5129937;27;19962;-85
2021/06/18 05:29:02;;;;;;;;;;;;;;;13.68;100.00;99090.56;5117388;27;19959;-85
2021/06/18 05:31:30;;;;;;;;;;;;;;;13.63;100.00;99087.53;5112201;27;19923;-85
2021/06/18 05:33:57;;;;;;;;;;;;;;;13.68;100.00;99098.19;5135575;27;20371;-85
2021/06/18 05:36:24;;;;;;;;;;;;;;;13.73;100.00;99092.84;5124823;27;19931;-85
2021/06/18 05:38:51;;;;;;;;;;;;;;;13.75;100.00;99095.22;5135630;27;19923;-85
2021/06/18 05:41:19;;;;;;;;;;;;;;;13.77;100.00;99098.34;5117143;27;19946;-79
2021/06/18 05:43:46;;;;;;;;;;;;;;;13.80;100.00;99103.88;5134708;27;19970;-79
2021/06/18 05:46:13;;;;;;;;;;;;;;;13.77;100.00;99109.56;5116000;27;19924;-79
2021/06/18 05:48:40;;;;;;;;;;;;;;;13.78;100.00;99105.56;5134275;27;19930;-79
2021/06/18 05:51:07;;;;;;;;;;;;;;;13.80;100.00;99100.25;5131445;27;20004;-79
2021/06/18 05:53:34;;;;;;;;;;;;;;;13.90;100.00;99093.56;5134203;27;19945;-79
2021/06/18 05:56:01;;;;;;;;;;;;;;;13.75;100.00;99095.22;5134607;27;19924;-80
2021/06/18 05:58:28;;;;;;;;;;;;;;;13.88;100.00;99099.63;5100926;27;20021;-80
2021/06/18 06:00:55;;;;;;;;;;;;;;;13.87;100.00;99103.66;5116440;27;19924;-79
2021/06/18 06:03:22;;;;;;;;;;;;;;;13.84;100.00;99107.34;5134678;27;20007;-79
2021/06/18 06:05:50;;;;;;;;;;;;;;;13.72;100.00;99101.72;5115367;27;19924;-79
2021/06/18 06:08:17;;;;;;;;;;;;;;;13.59;100.00;99100.84;5134161;27;19924;-79
2021/06/18 06:10:46;;;;;;;;;;;;;;;13.60;100.00;99117.25;5134105;27;20018;-79
2021/06/18 06:13:14;;;;;;;;;;;;;;;13.49;100.00;99115.97;5133980;27;19961;-79
2021/06/18 06:15:41;;;;;;;;;;;;;;;13.44;100.00;99124.91;5133722;27;20377;-80
2021/06/18 06:18:08;;;;;;;;;;;;;;;13.55;100.00;99133.84;5133688;27;19932;-79
2021/06/18 06:20:40;;;;;;;;;;;;;;;13.52;100.00;99137.56;5133843;27;20377;-79
2021/06/18 06:23:08;;;;;;;;;;;;;;;13.46;100.00;99134.50;5133618;27;19923;-79
2021/06/18 06:25:35;;;;;;;;;;;;;;;13.41;100.00;99137.84;5134387;27;19988;-80
2021/06/18 06:28:03;;;;;;;;;;;;;;;13.46;100.00;99144.94;5116247;28;20009;-80
2021/06/18 06:30:30;;;;;;;;;;;;;;;13.58;100.00;99133.78;5122515;28;19968;-79
2021/06/18 06:32:57;;;;;;;;;;;;;;;13.73;100.00;99134.97;5133461;27;19947;-79
2021/06/18 06:35:24;;;;;;;;;;;;;;;13.94;100.00;99125.94;5133139;27;19931;-79
2021/06/18 06:37:52;;;;;;;;;;;;;;;14.06;100.00;99127.19;5100595;28;19985;-79
2021/06/18 06:40:23;;;;;;;;;;;;;;;14.29;100.00;99132.56;5102691;28;19931;-76
2021/06/18 06:42:50;;;;;;;;;;;;;;;14.33;100.00;99136.06;5114114;28;20014;-76
2021/06/18 06:45:18;;;;;;;;;;;;;;;14.30;100.00;99134.13;5131971;27;19950;-76
2021/06/18 06:47:49;;;;;;;;;;;;;;;14.17;100.00;99127.69;5132503;27;19923;-76
2021/06/18 06:50:16;;;;;;;;;;;;;;;14.21;100.00;99140.41;5132886;28;19923;-76
2021/06/18 06:52:44;;;;;;;;;;;;;;;14.28;100.00;99136.63;5133272;27;20386;-76
2021/06/18 06:55:11;;;;;;;;;;;;;;;14.35;100.00;99139.22;5114941;28;20366;-76
2021/06/18 06:57:39;;;;;;;;;;;;;;;14.25;100.00;99141.09;5132944;27;19924;-76
2021/06/18 07:00:07;;;;;;;;;;;;;;;14.45;100.00;99140.91;5133024;27;19930;-76
2021/06/18 07:02:34;;;;;;;;;;;;;;;14.61;100.00;99140.84;5132842;27;19927;-76
2021/06/18 07:05:01;;;;;;;;;;;;;;;14.54;100.00;99141.03;5135304;27;19923;-76
2021/06/18 07:07:29;;;;;;;;;;;;;;;14.62;100.00;99133.97;5136709;27;20014;-76
2021/06/18 07:09:56;;;;;;;;;;;;;;;14.75;100.00;99137.59;5118608;27;19961;-76
2021/06/18 07:12:25;;;;;;;;;;;;;;;15.09;100.00;99132.03;5110250;27;19928;-76
2021/06/18 07:14:55;;;;;;;;;;;;;;;15.21;100.00;99122.78;5136822;27;20405;-76
2021/06/18 07:17:23;;;;;;;;;;;;;;;15.23;100.00;99131.56;5136832;27;20002;-76
2021/06/18 07:19:50;;;;;;;;;;;;;;;15.31;100.00;99134.94;5136323;27;19924;-76
2021/06/18 07:22:19;;;;;;;;;;;;;;;15.60;100.00;99138.38;5136606;27;19927;-76
2021/06/18 07:24:46;;;;;;;;;;;;;;;15.46;100.00;99147.31;5136613;27;19950;-76
2021/06/18 07:27:15;;;;;;;;;;;;;;;15.06;100.00;99144.19;5136569;27;20421;-76
2021/06/18 07:29:43;;;;;;;;;;;;;;;14.87;100.00;99152.88;5137077;27;19935;-77
2021/06/18 07:32:10;;;;;;;;;;;;;;;14.83;100.00;99152.97;5121816;27;19930;-77
2021/06/18 07:34:37;;;;;;;;;;;;;;;14.82;100.00;99150.63;5136437;27;20002;-76
2021/06/18 07:37:05;;;;;;;;;;;;;;;14.80;100.00;99153.13;5137152;27;20495;-77
2021/06/18 07:39:38;;;;;;;;;;;;;;;14.82;100.00;99154.22;5136962;27;19934;-78
2021/06/18 07:42:05;;;;;;;;;;;;;;;14.77;100.00;99149.16;5136855;27;19924;-78
2021/06/18 07:44:37;;;;;;;;;;;;;;;14.76;100.00;99136.34;5136198;27;19931;-78
2021/06/18 07:47:05;;;;;;;;;;;;;;;14.67;100.00;99124.97;5135903;27;19923;-78
2021/06/18 07:49:33;;;;;;;;;;;;;;;14.84;100.00;99125.66;5135981;27;20422;-78
2021/06/18 07:52:00;;;;;;;;;;;;;;;14.90;100.00;99133.09;5136226;27;19924;-78
2021/06/18 07:54:28;;;;;;;;;;;;;;;15.07;100.00;99131.69;5135745;27;19924;-78
2021/06/18 07:56:55;;;;;;;;;;;;;;;15.38;100.00;99127.06;5134807;27;20010;-78
2021/06/18 07:59:22;;;;;;;;;;;;;;;15.83;100.00;99124.66;5118158;27;19989;-78
2021/06/18 08:01:50;;;;;;;;;;;;;;;16.02;100.00;99119.97;5135045;27;19923;-78
2021/06/18 08:04:17;;;;;;;;;;;;;;;16.28;100.00;99129.84;5136257;27;19923;-78
2021/06/18 08:06:45;;;;;;;;;;;;;;;16.30;100.00;99130.16;5116825;27;19923;-78
2021/06/18 08:09:12;;;;;;;;;;;;;;;16.02;100.00;99140.44;5136584;27;19935;-79
2021/06/18 08:11:40;;;;;;;;;;;;;;;15.76;100.00;99147.47;5135300;27;19924;-78
2021/06/18 08:14:07;;;;;;;;;;;;;;;15.65;100.00;99146.25;5135692;27;19927;-78
2021/06/18 08:16:35;;;;;;;;;;;;;;;15.84;100.00;99140.31;5135279;27;19930;-78
2021/06/18 08:19:02;;;;;;;;;;;;;;;15.63;100.00;99143.88;5134645;27;20022;-78
2021/06/18 08:21:29;;;;;;;;;;;;;;;15.73;100.00;99142.75;5131978;27;19976;-78
2021/06/18 08:23:56;;;;;;;;;;;;;;;15.70;100.00;99146.47;5136345;27;19930;-79
2021/06/18 08:26:24;;;;;;;;;;;;;;;15.72;100.00;99146.00;5135891;27;19947;-78
2021/06/18 08:28:52;;;;;;;;;;;;;;;15.81;100.00;99135.59;5118085;27;19928;-78
2021/06/18 08:31:19;;;;;;;;;;;;;;;16.07;100.00;99139.88;5135979;27;19930;-78
2021/06/18 08:33:48;;;;;;;;;;;;;;;16.28;100.00;99139.06;5115279;27;20248;-78
2021/06/18 08:36:15;;;;;;;;;;;;;;;16.41;100.00;99132.56;5127189;27;19927;-79
2021/06/18 08:38:43;;;;;;;;;;;;;;;16.36;100.00;99139.59;5136334;27;19923;-78
2021/06/18 08:41:10;;;;;;;;;;;;;;;16.54;100.00;99127.69;5135770;27;19924;-80
2021/06/18 08:43:39;;;;;;;;;;;;;;;16.56;100.00;99125.16;5116132;27;19924;-81
2021/06/18 08:46:06;;;;;;;;;;;;;;;16.75;100.00;99121.19;5116892;27;19924;-80
2021/06/18 08:48:34;;;;;;;;;;;;;;;16.64;100.00;99120.81;5142716;27;19923;-80
2021/06/18 08:51:02;;;;;;;;;;;;;;;16.65;100.00;99133.66;5135766;27;19923;-81
2021/06/18 08:53:33;;;;;;;;;;;;;;;16.65;100.00;99122.38;5135710;27;19923;-80
2021/06/18 08:56:03;;;;;;;;;;;;;;;16.57;100.00;99115.47;5128966;27;19972;-80
2021/06/18 08:58:31;;;;;;;;;;;;;;;16.45;100.00;99125.56;5135591;27;19973;-80
2021/06/18 09:00:59;;;;;;;;;;;;;;;16.47;100.00;99134.38;5133908;27;20026;-80
2021/06/18 09:03:33;;;;;;;;;;;;;;;16.68;100.00;99122.25;5135493;27;20305;-81
2021/06/18 09:06:01;;;;;;;;;;;;;;;16.44;100.00;99115.56;5135866;27;19950;-78
2021/06/18 09:08:28;;;;;;;;;;;;;;;16.66;100.00;99109.88;5142874;27;19970;-78
2021/06/18 09:10:56;;;;;;;;;;;;;;;16.87;100.00;99126.75;5134655;27;19923;-79
2021/06/18 09:13:30;;;;;;;;;;;;;;;16.86;100.00;99110.25;5135166;27;19931;-78
2021/06/18 09:15:59;;;;;;;;;;;;;;;17.26;100.00;99113.84;5115320;27;20044;-78
2021/06/18 09:18:30;;;;;;;;;;;;;;;17.51;100.00;99110.75;5135240;27;19923;-79
2021/06/18 09:21:03;;;;;;;;;;;;;;;17.62;100.00;99113.91;5135188;27;19924;-79
2021/06/18 09:23:35;;;;;;;;;;;;;;;17.70;100.00;99115.19;5115518;27;19930;-78
2021/06/18 09:26:17;;;;;;;;;;;;;;;17.65;100.00;99104.50;5107376;28;19923;-78
2021/06/18 09:28:57;;;;;;;;;;;;;;;17.69;100.00;99110.78;5132643;27;19931;-79
2021/06/18 09:31:25;;;;;;;;;;;;;;;17.55;100.00;99106.53;5134513;27;19927;-78
2021/06/18 09:33:53;;;;;;;;;;;;;;;17.65;100.00;99104.50;5134629;27;19927;-79
2021/06/18 09:36:20;;;;;;;;;;;;;;;17.72;100.00;99098.56;5134883;27;19927;-79
2021/06/18 09:38:50;;;;;;;;;;;;;;;17.43;100.00;99103.84;5134786;27;19968;-79
2021/06/18 09:41:54;;;;;;;;;;;;;;;17.40;100.00;99108.34;5134899;27;20072;-79
2021/06/18 09:44:23;;;;;;;;;;;;;;;17.31;100.00;99107.56;5102247;27;19934;-79
2021/06/18 09:46:54;;;;;;;;;;;;;;;17.49;100.00;99091.44;5134729;27;19927;-79
2021/06/18 09:49:31;;;;;;;;;;;;;;;17.13;100.00;99099.06;5134830;27;19928;-77
2021/06/18 09:52:03;;;;;;;;;;;;;;;17.16;100.00;99095.31;5134424;27;19923;-76
2021/06/18 09:54:32;;;;;;;;;;;;;;;16.95;100.00;99108.25;5134845;27;19970;-76
2021/06/18 09:57:06;;;;;;;;;;;;;;;16.94;100.00;99094.59;5115899;27;19923;-76
2021/06/18 09:59:53;;;;;;;;;;;;;;;17.21;100.00;99098.28;5134616;27;19934;-78
2021/06/18 10:02:21;;;;;;;;;;;;;;;17.16;100.00;99084.78;5134532;27;19923;-79
2021/06/18 10:04:50;;;;;;;;;;;;;;;17.09;100.00;99085.09;5131914;27;19927;-79
2021/06/18 10:07:26;;;;;;;;;;;;;;;17.24;100.00;99090.91;5115949;27;19927;-79
2021/06/18 10:09:55;;;;;;;;;;;;;;;17.21;100.00;99100.31;5133145;27;19935;-79
2021/06/18 10:12:22;;;;;;;;;;;;;;;17.27;100.00;99099.25;5115785;27;19923;-79
2021/06/18 10:14:51;;;;;;;;;;;;;;;17.14;100.00;99087.31;5137980;27;19924;-79
2021/06/18 10:17:18;;;;;;;;;;;;;;;17.44;100.00;99094.13;5140883;27;19976;-79
2021/06/18 10:19:45;;;;;;;;;;;;;;;17.15;100.00;99086.03;5134061;27;19938;-79
2021/06/18 10:22:14;;;;;;;;;;;;;;;17.39;100.00;99086.22;5134005;27;19934;-79
2021/06/18 10:24:49;;;;;;;;;;;;;;;17.59;100.00;99092.25;5132909;27;19966;-79
2021/06/18 10:27:19;;;;;;;;;;;;;;;17.63;100.00;99088.00;5133834;27;19923;-79
2021/06/18 10:29:46;;;;;;;;;;;;;;;17.65;100.00;99071.38;5115848;28;19927;-79
2021/06/18 10:32:28;;;;;;;;;;;;;;;17.61;100.00;99086.91;5134191;27;20363;-79
2021/06/18 10:34:56;;;;;;;;;;;;;;;17.11;100.00;99079.78;5133997;27;20278;-79
2021/06/18 10:37:28;;;;;;;;;;;;;;;16.92;100.00;99080.19;5115868;28;20354;-79
2021/06/18 10:39:56;;;;;;;;;;;;;;;17.08;100.00;99077.09;5138290;27;20095;-79
2021/06/18 10:42:24;;;;;;;;;;;;;;;16.93;100.00;99068.44;5137916;27;20354;-79
2021/06/18 10:44:52;;;;;;;;;;;;;;;16.79;100.00;99079.50;5135040;27;19946;-79
2021/06/18 10:47:22;;;;;;;;;;;;;;;16.81;100.00;99086.25;5138172;27;19930;-79
2021/06/18 10:49:53;;;;;;;;;;;;;;;16.92;100.00;99083.00;5138206;27;20379;-79
2021/06/18 10:52:24;;;;;;;;;;;;;;;16.92;100.00;99085.84;5138367;27;19923;-79
2021/06/18 10:54:52;;;;;;;;;;;;;;;16.63;100.00;99082.59;5138164;27;19927;-79
2021/06/18 10:57:23;;;;;;;;;;;;;;;16.52;100.00;99079.41;5137796;27;19924;-79
2021/06/18 10:59:52;;;;;;;;;;;;;;;16.16;100.00;99075.09;5120062;27;19931;-79
2021/06/18 11:02:22;;;;;;;;;;;;;;;16.20;100.00;99084.22;5136699;27;19924;-79
2021/06/18 11:04:55;;;;;;;;;;;;;;;16.25;100.00;99077.97;5138028;27;19980;-79
2021/06/18 11:07:33;;;;;;;;;;;;;;;16.18;100.00;99078.25;5118280;27;19923;-79
2021/06/18 11:10:03;;;;;;;;;;;;;;;16.29;100.00;99077.84;5137414;27;19981;-79
2021/06/18 11:12:31;;;;;;;;;;;;;;;16.39;100.00;99073.03;5136227;27;19927;-79
2021/06/18 11:14:59;;;;;;;;;;;;;;;16.46;100.00;99081.25;5137700;27;19981;-79
2021/06/18 11:17:38;;;;;;;;;;;;;;;16.53;100.00;99078.13;5136181;27;19923;-79
2021/06/18 11:20:10;;;;;;;;;;;;;;;16.56;100.00;99075.19;5137411;27;19928;-79
2021/06/18 11:22:42;;;;;;;;;;;;;;;16.54;100.00;99071.28;5119108;27;19984;-78
2021/06/18 11:25:48;;;;;;;;;;;;;;;16.39;100.00;99070.22;5137411;27;20388;-80
2021/06/18 11:28:22;;;;;;;;;;;;;;;16.25;100.00;99065.94;5037043;28;20415;-80
2021/06/18 11:30:56;;;;;;;;;;;;;;;16.33;100.00;99061.56;5037136;28;19925;-80
2021/06/18 11:33:41;;;;;;;;;;;;;;;16.32;100.00;99071.28;5037396;28;19925;-78
2021/06/18 11:36:32;;;;;;;;;;;;;;;16.15;100.00;99067.91;5053073;28;19933;-79
2021/06/18 11:39:10;;;;;;;;;;;;;;;15.96;100.00;99060.56;5050885;28;19925;-79
2021/06/18 11:41:42;;;;;;;;;;;;;;;15.87;100.00;99068.94;5053676;28;19924;-79
2021/06/18 11:44:11;;;;;;;;;;;;;;;15.75;100.00;99067.00;5040692;28;20012;-79
2021/06/18 11:46:38;;;;;;;;;;;;;;;15.69;100.00;99077.28;5053659;28;20407;-79
2021/06/18 11:49:13;;;;;;;;;;;;;;;15.74;100.00;99073.88;5037537;28;19944;-78
2021/06/18 11:51:40;;;;;;;;;;;;;;;15.71;100.00;99062.72;5035912;28;19924;-79
2021/06/18 11:54:07;;;;;;;;;;;;;;;15.56;100.00;99067.31;5039201;28;20275;-79
2021/06/18 11:56:35;;;;;;;;;;;;;;;15.49;100.00;99076.00;5037811;28;20388;-79
2021/06/18 11:59:12;;;;;;;;;;;;;;;15.51;100.00;99068.69;5088600;27;20371;-79
2021/06/18 12:01:39;;;;;;;;;;;;;;;15.61;100.00;99069.53;5137204;27;20022;-79
2021/06/18 12:04:13;;;;;;;;;;;;;;;15.66;100.00;99061.28;5137026;27;19924;-79
2021/06/18 12:06:40;;;;;;;;;;;;;;;15.75;100.00;99060.59;5136820;27;19923;-79
2021/06/18 12:09:10;;;;;;;;;;;;;;;15.79;100.00;99061.22;5136049;27;19924;-79
2021/06/18 12:11:37;;;;;;;;;;;;;;;15.61;100.00;99061.09;5113384;27;19924;-79
2021/06/18 12:14:05;;;;;;;;;;;;;;;15.74;100.00;99056.97;5136313;27;19923;-79
2021/06/18 12:16:34;;;;;;;;;;;;;;;15.69;100.00;99056.78;5136118;27;20345;-79
2021/06/18 12:19:20;;;;;;;;;;;;;;;15.61;100.00;99056.25;5136204;27;19930;-79
2021/06/18 12:22:10;;;;;;;;;;;;;;;15.53;100.00;99054.13;5134482;27;19930;-79
2021/06/18 12:24:41;;;;;;;;;;;;;;;15.58;100.00;99050.75;5126402;27;20018;-78
2021/06/18 12:27:12;;;;;;;;;;;;;;;15.59;100.00;99050.28;5122960;27;19927;-79
2021/06/18 12:29:39;;;;;;;;;;;;;;;15.24;100.00;99048.69;5136216;27;20040;-79
2021/06/18 12:32:08;;;;;;;;;;;;;;;15.35;100.00;99043.50;5133001;27;19996;-79
2021/06/18 12:34:35;;;;;;;;;;;;;;;15.34;100.00;99039.09;5132884;27;19923;-80
2021/06/18 12:37:07;;;;;;;;;;;;;;;15.44;100.00;99040.78;5117678;27;20358;-78
2021/06/18 12:39:53;;;;;;;;;;;;;;;15.58;100.00;99040.28;5136206;27;19924;-78
2021/06/18 12:42:22;;;;;;;;;;;;;;;15.57;100.00;99038.69;5135044;27;19923;-78
2021/06/18 12:45:07;;;;;;;;;;;;;;;15.44;100.00;99040.78;5117386;27;19931;-78
2021/06/18 12:47:35;;;;;;;;;;;;;;;15.28;100.00;99038.09;5116385;27;20278;-79